Time;durP1;ratioP1;P1;durP2;ratioP2;P2;SDS_P1;SDS_P2;PMS_P1;PMS_P2;Temp;Humidity;BMP_temperature;BMP_pressure;BME280_temperature;BME280_humidity;BME280_pressure;Samples;Min_cycle;Max_cycle;Signal;HPM_P1;HPM_P2
2022/07/26 00:01:31;;;;;;;2.65;2.45;;;;;;;22.19;66.04;100705.69;5048480;27;102278;-89
2022/07/26 00:03:58;;;;;;;2.80;2.60;;;;;;;22.19;65.89;100706.50;5031033;27;103951;-90
2022/07/26 00:06:25;;;;;;;2.60;2.40;;;;;;;22.19;66.04;100705.69;5038119;27;102871;-90
2022/07/26 00:08:51;;;;;;;2.70;2.50;;;;;;;22.19;65.75;100705.69;5031159;27;102508;-90
2022/07/26 00:11:20;;;;;;;2.63;2.42;;;;;;;22.18;66.06;100704.88;5014955;28;102835;-90
2022/07/26 00:13:49;;;;;;;3.15;2.90;;;;;;;22.18;66.08;100710.41;5035553;27;103900;-90
2022/07/26 00:16:17;;;;;;;3.07;2.70;;;;;;;22.19;65.70;100711.22;5004686;27;102662;-90
2022/07/26 00:18:44;;;;;;;2.58;2.38;;;;;;;22.18;65.84;100704.88;5044731;27;102317;-89
2022/07/26 00:21:10;;;;;;;2.72;2.53;;;;;;;22.17;66.04;100706.00;5004582;28;102669;-89
2022/07/26 00:23:37;;;;;;;2.30;2.10;;;;;;;22.16;66.14;100695.28;4996887;28;103951;-89
2022/07/26 00:26:04;;;;;;;2.72;2.10;;;;;;;22.17;65.87;100703.25;5008613;28;102357;-89
2022/07/26 00:28:32;;;;;;;2.50;2.30;;;;;;;22.17;65.74;100692.16;5022670;28;102292;-90
2022/07/26 00:30:59;;;;;;;2.70;2.50;;;;;;;22.18;65.73;100685.47;5016340;27;102623;-90
2022/07/26 00:33:25;;;;;;;2.85;2.65;;;;;;;22.17;65.65;100681.06;5018227;27;103905;-90
2022/07/26 00:35:52;;;;;;;2.55;2.35;;;;;;;22.17;65.86;100681.06;5066578;27;102156;-90
2022/07/26 00:38:19;;;;;;;2.97;2.35;;;;;;;22.16;65.98;100687.78;5039279;27;102186;-90
2022/07/26 00:40:46;;;;;;;2.97;2.60;;;;;;;22.17;65.85;100681.06;5055405;27;102212;-91
2022/07/26 00:43:16;;;;;;;3.55;2.40;;;;;;;22.17;66.27;100685.81;5051981;27;103135;-92
2022/07/26 00:45:45;;;;;;;2.55;2.35;;;;;;;22.15;65.81;100683.41;5037286;27;102553;-91
2022/07/26 00:48:11;;;;;;;3.08;2.53;;;;;;;22.16;65.79;100682.25;5037133;27;102477;-91
2022/07/26 00:50:38;;;;;;;3.00;2.70;;;;;;;22.15;65.88;100683.41;5036034;27;102586;-90
2022/07/26 00:53:05;;;;;;;3.22;2.60;;;;;;;22.15;65.81;100680.63;5036735;27;104259;-91
2022/07/26 00:55:32;;;;;;;3.05;2.75;;;;;;;22.16;65.87;100689.75;5035790;27;102145;-91
2022/07/26 00:58:01;;;;;;;2.50;2.30;;;;;;;22.16;65.50;100684.19;5038819;27;102305;-91
2022/07/26 01:00:28;;;;;;;2.63;2.42;;;;;;;22.13;65.85;100685.66;5022789;27;102167;-91
2022/07/26 01:02:59;;;;;;;2.58;2.38;;;;;;;22.15;65.92;100677.06;5014515;27;104382;-91
2022/07/26 01:05:28;;;;;;;3.10;2.90;;;;;;;22.14;66.03;100687.31;5050916;27;102151;-91
2022/07/26 01:07:55;;;;;;;2.83;2.60;;;;;;;22.14;66.20;100681.75;5034461;27;102135;-91
2022/07/26 01:10:22;;;;;;;2.60;2.40;;;;;;;22.14;66.24;100679.00;4996384;28;102683;-91
2022/07/26 01:12:49;;;;;;;2.60;2.40;;;;;;;22.14;66.11;100681.75;5022971;27;104011;-91
2022/07/26 01:15:16;;;;;;;2.80;2.60;;;;;;;22.13;65.89;100688.44;5053340;27;102166;-91
2022/07/26 01:17:44;;;;;;;2.35;2.13;;;;;;;22.14;65.87;100694.78;5037442;27;102325;-91
2022/07/26 01:20:13;;;;;;;2.10;2.00;;;;;;;22.13;65.82;100685.66;5039356;27;102299;-91
2022/07/26 01:22:41;;;;;;;2.90;2.70;;;;;;;22.12;65.58;100686.84;5016620;28;104333;-91
2022/07/26 01:25:14;;;;;;;3.40;2.47;;;;;;;22.13;65.88;100691.22;5012807;27;102053;-91
2022/07/26 01:27:43;;;;;;;2.42;2.22;;;;;;;22.13;66.11;100682.91;5037735;27;102408;-89
2022/07/26 01:30:11;;;;;;;2.83;2.50;;;;;;;22.14;65.75;100681.75;5056018;27;102283;-89
2022/07/26 01:32:38;;;;;;;3.07;2.43;;;;;;;22.14;65.97;100675.38;5037879;27;104250;-89
2022/07/26 01:35:06;;;;;;;2.40;2.20;;;;;;;22.13;66.47;100677.34;5039738;27;102057;-89
2022/07/26 01:37:34;;;;;;;2.95;2.50;;;;;;;22.13;65.88;100680.13;5039252;27;102545;-90
2022/07/26 01:40:03;;;;;;;2.40;2.20;;;;;;;22.13;66.20;100682.91;5035522;27;102227;-89
2022/07/26 01:42:31;;;;;;;4.20;2.47;;;;;;;22.12;65.18;100672.97;5017337;28;104248;-89
2022/07/26 01:44:58;;;;;;;2.22;2.03;;;;;;;22.14;65.72;100667.91;5016717;28;102215;-89
2022/07/26 01:47:24;;;;;;;2.70;2.50;;;;;;;22.14;65.52;100673.44;5017558;27;102319;-89
2022/07/26 01:49:51;;;;;;;2.67;2.20;;;;;;;22.14;65.36;100670.69;5036041;27;102323;-89
2022/07/26 01:52:18;;;;;;;2.80;2.40;;;;;;;22.13;65.68;100668.25;5034053;27;103923;-89
2022/07/26 01:54:44;;;;;;;3.28;2.33;;;;;;;22.13;65.68;100668.25;5035338;27;102692;-89
2022/07/26 01:57:13;;;;;;;3.15;2.58;;;;;;;22.12;65.86;100670.22;5043311;27;102551;-89
2022/07/26 01:59:39;;;;;;;4.00;2.15;;;;;;;22.14;65.98;100672.63;5029964;27;102514;-89
2022/07/26 02:02:06;;;;;;;2.83;2.33;;;;;;;22.13;66.03;100668.25;4996479;28;103131;-91
2022/07/26 02:07:39;;;;;;;3.15;2.10;;;;;;;22.13;65.88;100669.03;5013850;27;102248;-92
2022/07/26 02:10:07;;;;;;;2.50;2.30;;;;;;;22.13;65.73;100680.13;5032968;27;102718;-90
2022/07/26 02:12:35;;;;;;;2.42;2.00;;;;;;;22.13;65.88;100682.91;5028272;27;104073;-90
2022/07/26 02:15:02;;;;;;;2.30;2.08;;;;;;;22.13;65.56;100674.59;5020385;28;102394;-90
2022/07/26 02:17:29;;;;;;;2.90;2.58;;;;;;;22.13;65.58;100674.59;4999677;28;102389;-90
2022/07/26 02:19:55;;;;;;;2.72;2.30;;;;;;;22.13;65.25;100673.78;5031317;27;102443;-90
2022/07/26 02:22:22;;;;;;;2.90;2.50;;;;;;;22.13;65.42;100674.59;5016467;27;104037;-90
2022/07/26 02:24:50;;;;;;;4.10;2.42;;;;;;;22.13;65.50;100677.34;5013896;28;102229;-91
2022/07/26 02:27:16;;;;;;;2.22;2.03;;;;;;;22.14;65.29;100684.53;5026024;28;102341;-91
2022/07/26 02:29:45;;;;;;;2.50;2.30;;;;;;;22.13;65.40;100680.13;5014810;28;102650;-91
2022/07/26 02:32:12;;;;;;;4.22;2.55;;;;;;;22.13;65.54;100680.13;5011878;28;103805;-90
2022/07/26 02:34:38;;;;;;;2.38;2.17;;;;;;;22.12;65.63;100678.53;5049224;27;102631;-89
2022/07/26 02:37:05;;;;;;;2.30;2.10;;;;;;;22.12;65.25;100666.63;5017412;27;102561;-90
2022/07/26 02:39:32;;;;;;;2.30;2.10;;;;;;;22.11;65.47;100676.91;4994288;28;102441;-91
2022/07/26 02:42:00;;;;;;;2.47;2.28;;;;;;;22.12;65.45;100675.75;5008373;28;103954;-89
2022/07/26 02:44:28;;;;;;;2.40;2.20;;;;;;;22.12;65.40;100672.97;5045539;27;102163;-89
2022/07/26 02:46:56;;;;;;;2.20;2.05;;;;;;;22.12;65.26;100672.97;5049640;27;102147;-89
2022/07/26 02:49:22;;;;;;;3.10;2.42;;;;;;;22.12;65.20;100684.06;5018178;28;102495;-89
2022/07/26 02:51:49;;;;;;;2.83;2.47;;;;;;;22.12;65.04;100678.53;5026923;27;103069;-89
2022/07/26 02:54:16;;;;;;;2.47;2.20;;;;;;;22.12;65.26;100684.06;5023153;27;102168;-89
2022/07/26 02:56:43;;;;;;;2.40;2.20;;;;;;;22.12;65.37;100680.50;5037710;27;102604;-89
2022/07/26 02:59:09;;;;;;;2.60;2.13;;;;;;;22.11;65.23;100670.53;5055849;27;102503;-89
2022/07/26 03:01:38;;;;;;;2.45;2.22;;;;;;;22.11;65.48;100674.16;5036249;27;104221;-88
2022/07/26 03:04:08;;;;;;;;;;;;;;;22.10;65.86;100669.75;5027743;27;102249;-89
2022/07/26 03:06:35;;;;;;;2.63;2.22;;;;;;;22.10;66.06;100663.41;5016097;28;102380;-89
2022/07/26 03:09:03;;;;;;;2.40;2.20;;;;;;;22.11;65.15;100671.38;5037508;27;102149;-89
2022/07/26 03:11:29;;;;;;;2.20;2.10;;;;;;;22.13;65.46;100684.88;5053132;27;103971;-89
2022/07/26 03:13:56;;;;;;;3.00;2.17;;;;;;;22.11;65.13;100667.78;5007689;27;105134;-89
2022/07/26 03:16:23;;;;;;;2.35;2.13;;;;;;;22.11;65.48;100671.38;4996701;28;102067;-89
2022/07/26 03:18:49;;;;;;;2.55;2.35;;;;;;;22.11;65.55;100660.28;5023990;27;102263;-89
2022/07/26 03:21:17;;;;;;;3.05;2.40;;;;;;;22.09;65.87;100662.59;5019007;27;103942;-90
2022/07/26 03:23:44;;;;;;;2.33;2.13;;;;;;;22.10;66.03;100663.41;5016976;27;102490;-89
2022/07/26 03:26:11;;;;;;;2.92;2.22;;;;;;;22.09;65.88;100665.38;5020606;27;102282;-90
2022/07/26 03:28:38;;;;;;;3.70;2.22;;;;;;;22.10;65.78;100669.75;5038764;27;102610;-90
2022/07/26 03:31:05;;;;;;;2.38;2.10;;;;;;;22.11;65.88;100670.53;5052894;27;103984;-90
2022/07/26 03:33:31;;;;;;;2.75;2.55;;;;;;;22.11;65.68;100674.16;5052116;27;102282;-90
2022/07/26 03:35:58;;;;;;;2.28;2.10;;;;;;;22.12;65.75;100667.44;5053516;27;102111;-90
2022/07/26 03:38:26;;;;;;;2.70;2.35;;;;;;;22.13;66.22;100669.03;5044724;27;102264;-90
2022/07/26 03:40:53;;;;;;;2.27;2.13;;;;;;;22.10;66.64;100669.75;5036269;27;103863;-90
2022/07/26 03:43:19;;;;;;;2.30;2.10;;;;;;;22.10;66.92;100672.50;5052936;27;102220;-89
2022/07/26 03:45:46;;;;;;;2.38;2.20;;;;;;;22.09;66.95;100668.13;5030410;27;104814;-89
2022/07/26 03:48:38;;;;;;;2.10;1.92;;;;;;;22.08;67.08;100672.06;5029124;27;102160;-91
2022/07/26 03:51:08;;;;;;;2.25;2.05;;;;;;;22.10;66.95;100669.75;5029746;27;102501;-90
2022/07/26 03:53:36;;;;;;;2.60;2.20;;;;;;;22.11;67.12;100676.09;5019202;27;102076;-90
2022/07/26 03:58:48;;;;;;;2.05;1.85;;;;;;;22.11;66.70;100671.38;5004465;28;102783;-89
2022/07/26 04:01:15;;;;;;;2.65;2.17;;;;;;;22.11;66.88;100671.38;5010872;28;103937;-90
2022/07/26 04:03:42;;;;;;;2.80;2.30;;;;;;;22.13;66.74;100671.00;5007385;28;103877;-90
2022/07/26 04:06:09;;;;;;;2.95;2.30;;;;;;;22.13;66.61;100657.97;5025250;27;102374;-90
2022/07/26 04:08:37;;;;;;;2.60;2.40;;;;;;;22.14;66.95;100661.53;5051132;27;103102;-89
2022/07/26 04:11:04;;;;;;;2.33;2.13;;;;;;;22.14;66.66;100665.13;5035344;27;103980;-90
2022/07/26 04:13:34;;;;;;;2.10;1.90;;;;;;;22.14;67.05;100676.22;5016258;28;102427;-90
2022/07/26 04:16:09;;;;;;;2.08;1.88;;;;;;;22.15;66.77;100672.31;4997524;27;102540;-90
2022/07/26 04:18:36;;;;;;;3.13;2.10;;;;;;;22.15;67.01;100666.78;5046826;27;102461;-90
2022/07/26 04:21:03;;;;;;;2.50;2.00;;;;;;;22.15;66.74;100672.31;5013506;28;103281;-90
2022/07/26 04:23:30;;;;;;;2.30;2.10;;;;;;;22.15;66.52;100666.78;5020250;27;102500;-91
2022/07/26 04:25:58;;;;;;;2.45;2.22;;;;;;;22.16;66.66;100664.81;5009527;28;102072;-90
2022/07/26 04:28:27;;;;;;;2.22;2.03;;;;;;;22.16;66.62;100665.59;5009703;28;102255;-91
2022/07/26 04:30:58;;;;;;;2.78;2.40;;;;;;;22.17;66.67;100666.41;5024497;27;106744;-92
2022/07/26 04:33:27;;;;;;;2.00;1.88;;;;;;;22.17;66.81;100661.66;5042163;27;102942;-91
2022/07/26 04:35:53;;;;;;;3.17;2.35;;;;;;;22.18;66.77;100670.78;5024295;27;102522;-90
2022/07/26 04:38:20;;;;;;;2.92;2.20;;;;;;;22.19;66.61;100669.66;5047680;27;102260;-90
2022/07/26 04:40:48;;;;;;;2.20;2.00;;;;;;;22.19;67.02;100676.00;5052244;27;103922;-90
2022/07/26 04:43:16;;;;;;;2.37;2.17;;;;;;;22.19;66.82;100667.69;5027591;27;102447;-89
2022/07/26 04:46:14;;;;;;;2.30;2.10;;;;;;;22.20;66.92;100669.28;5014612;28;102458;-90
2022/07/26 04:49:27;;;;;;;2.20;2.10;;;;;;;22.19;66.81;100670.44;5008839;27;102697;-90
2022/07/26 04:51:54;;;;;;;2.47;1.92;;;;;;;22.20;66.82;100674.81;5032624;27;103209;-91
2022/07/26 04:54:31;;;;;;;;;;;;;;;;;;;;;
2022/07/26 04:57:02;;;;;;;1.98;1.88;;;;;;;22.21;67.01;100673.66;5041099;27;102209;-91
2022/07/26 04:59:31;;;;;;;1.90;1.80;;;;;;;22.23;66.79;100679.66;5035241;27;102250;-90
2022/07/26 05:01:57;;;;;;;2.30;2.10;;;;;;;22.25;66.97;100687.63;5034478;27;103404;-90
2022/07/26 05:04:27;;;;;;;2.88;1.98;;;;;;;22.25;67.22;100677.38;5029240;27;102571;-91
2022/07/26 05:07:01;;;;;;;2.40;2.20;;;;;;;22.26;67.19;100678.16;4988036;28;103086;-91
2022/07/26 05:09:29;;;;;;;3.13;1.92;;;;;;;22.26;66.98;100673.44;4995321;28;102198;-91
2022/07/26 05:11:56;;;;;;;2.30;2.10;;;;;;;22.28;66.74;100678.63;5004643;28;103916;-89
2022/07/26 05:14:22;;;;;;;2.33;2.13;;;;;;;22.29;66.90;100683.81;5030493;27;102570;-90
2022/07/26 05:16:50;;;;;;;3.70;2.55;;;;;;;22.31;67.24;100681.50;5008631;27;102994;-90
2022/07/26 05:19:17;;;;;;;2.87;2.07;;;;;;;22.30;67.06;100677.13;5001021;27;102519;-90
2022/07/26 05:21:44;;;;;;;2.58;2.38;;;;;;;22.33;66.92;100672.84;5000296;27;103361;-89
2022/07/26 05:24:10;;;;;;;2.20;2.10;;;;;;;22.35;67.00;100675.25;5035898;27;102117;-90
2022/07/26 05:26:37;;;;;;;1.92;1.83;;;;;;;22.36;67.06;100676.84;5004324;27;102186;-90
2022/07/26 05:29:04;;;;;;;3.10;2.42;;;;;;;22.38;66.88;100686.44;5010577;28;102156;-89
2022/07/26 05:31:31;;;;;;;2.75;2.55;;;;;;;22.42;66.85;100675.44;5005558;27;104311;-89
2022/07/26 05:34:02;;;;;;;2.58;2.38;;;;;;;22.43;66.98;100679.81;5021229;27;102127;-90
2022/07/26 05:36:29;;;;;;;2.22;2.03;;;;;;;22.43;66.84;100672.34;5012184;28;102717;-90
2022/07/26 05:38:56;;;;;;;3.95;2.40;;;;;;;22.45;67.07;100669.19;4995353;28;102445;-90
2022/07/26 05:41:23;;;;;;;2.47;2.28;;;;;;;22.46;66.99;100670.81;4993937;28;103677;-89
2022/07/26 05:43:52;;;;;;;3.25;2.60;;;;;;;22.47;67.02;100669.66;5030584;28;102170;-90
2022/07/26 05:46:20;;;;;;;3.88;2.63;;;;;;;22.49;66.61;100675.66;5014423;28;102666;-90
2022/07/26 05:48:47;;;;;;;2.50;2.30;;;;;;;22.51;66.37;100673.34;5027648;27;103036;-89
2022/07/26 05:51:15;;;;;;;3.05;2.75;;;;;;;22.54;66.57;100672.66;5033958;27;103789;-90
2022/07/26 05:53:41;;;;;;;2.70;2.50;;;;;;;22.57;66.59;100676.66;5023261;27;102237;-89
2022/07/26 05:56:08;;;;;;;3.50;2.72;;;;;;;22.60;66.66;100673.97;5006441;27;102167;-89
2022/07/26 05:58:35;;;;;;;2.55;2.35;;;;;;;22.63;66.71;100676.06;5014517;28;102575;-90
2022/07/26 06:01:02;;;;;;;2.50;1.92;;;;;;;22.66;66.51;100683.66;5029616;28;103123;-90
2022/07/26 06:03:30;;;;;;;2.72;2.53;;;;;;;22.65;66.70;100673.75;5030899;27;102692;-89
2022/07/26 06:05:57;;;;;;;2.67;2.47;;;;;;;22.68;66.69;100672.22;5027153;27;103174;-90
2022/07/26 06:11:49;;;;;;;3.55;2.55;;;;;;;22.71;66.48;100666.75;4994175;28;103251;-91
2022/07/26 06:14:37;;;;;;;2.85;2.55;;;;;;;22.73;66.61;100664.44;5006310;28;102188;-92
2022/07/26 06:17:18;;;;;;;2.85;2.55;;;;;;;22.76;66.27;100660.97;4989791;28;102435;-91
2022/07/26 06:19:52;;;;;;;3.10;2.80;;;;;;;22.77;66.32;100665.34;5009136;27;102663;-92
2022/07/26 06:22:26;;;;;;;2.50;2.30;;;;;;;22.77;66.19;100654.25;5044961;27;103482;-92
2022/07/26 06:25:08;;;;;;;2.75;2.55;;;;;;;22.79;66.49;100651.94;5036223;27;102161;-92
2022/07/26 06:27:42;;;;;;;2.78;2.58;;;;;;;22.79;66.52;100646.38;5032282;27;102409;-92
2022/07/26 06:30:10;;;;;;;2.58;2.38;;;;;;;22.79;66.51;100646.38;5026805;27;102186;-90
2022/07/26 06:32:36;;;;;;;4.97;3.57;;;;;;;22.79;66.82;100646.38;5032108;27;103673;-90
2022/07/26 06:35:07;;;;;;;3.63;2.45;;;;;;;22.81;66.49;100648.00;4990467;28;102655;-92
2022/07/26 06:38:04;;;;;;;2.55;2.35;;;;;;;22.79;66.65;100646.38;4993225;28;102224;-92
2022/07/26 06:48:54;;;;;;;2.50;2.30;;;;;;;22.86;66.53;100625.53;4909631;28;102741;-94
2022/07/26 06:51:34;;;;;;;2.80;2.58;;;;;;;22.85;66.29;100621.94;5021841;27;103350;-93
2022/07/26 06:54:09;;;;;;;3.40;2.15;;;;;;;22.87;66.58;100621.59;5018909;28;102703;-92
2022/07/26 06:56:36;;;;;;;2.63;2.42;;;;;;;22.87;66.38;100622.41;5011428;28;103811;-91
2022/07/26 06:59:05;;;;;;;2.65;2.45;;;;;;;22.87;66.44;100627.97;4998644;28;102733;-90
2022/07/26 07:01:35;;;;;;;2.65;2.45;;;;;;;22.89;66.41;100627.59;5004027;28;102414;-90
2022/07/26 07:04:51;;;;;;;2.40;2.20;;;;;;;22.89;66.65;100628.38;5022434;27;104031;-89
2022/07/26 07:11:51;;;;;;;2.30;1.95;;;;;;;22.93;66.27;100614.63;4837717;28;103083;-89
2022/07/26 07:14:18;;;;;;;2.10;2.00;;;;;;;22.96;66.17;100619.47;4899902;28;102250;-91
2022/07/26 07:16:58;;;;;;;3.05;2.08;;;;;;;22.97;66.25;100619.13;5013212;28;103612;-89
2022/07/26 07:19:25;;;;;;;2.20;2.00;;;;;;;22.94;66.25;100617.06;5015484;28;104704;-89
2022/07/26 07:21:54;;;;;;;2.40;2.20;;;;;;;22.92;66.52;100618.59;5000531;28;102235;-91
2022/07/26 07:24:22;;;;;;;2.20;2.00;;;;;;;22.89;66.65;100617.28;5017329;28;102161;-89
2022/07/26 07:26:50;;;;;;;2.65;2.22;;;;;;;22.92;66.56;100613.03;5020549;28;102914;-91
2022/07/26 07:29:19;;;;;;;2.60;2.40;;;;;;;22.96;65.88;100623.06;5017067;28;103648;-90
2022/07/26 07:31:46;;;;;;;2.50;2.30;;;;;;;23.00;65.45;100623.16;5017547;28;102132;-90
2022/07/26 07:34:13;;;;;;;2.17;1.98;;;;;;;22.99;66.06;100621.53;5035305;27;102118;-90
2022/07/26 07:36:40;;;;;;;2.15;2.05;;;;;;;22.97;66.22;100623.84;5027220;27;102185;-89
2022/07/26 07:39:07;;;;;;;2.38;2.17;;;;;;;22.98;66.49;100619.94;5036034;27;104153;-91
2022/07/26 07:41:36;;;;;;;2.20;2.00;;;;;;;22.98;66.21;100633.81;5016241;27;102358;-90
2022/07/26 07:44:06;;;;;;;2.40;2.20;;;;;;;22.99;66.48;100632.63;5034534;27;102378;-88
2022/07/26 07:46:33;;;;;;;2.42;2.13;;;;;;;22.98;66.45;100625.50;5027653;27;102552;-90
2022/07/26 07:48:59;;;;;;;2.30;2.10;;;;;;;22.98;66.47;100626.28;5034869;27;103100;-90
2022/07/26 07:51:26;;;;;;;2.47;2.28;;;;;;;22.98;66.47;100623.50;5040468;27;102610;-90
2022/07/26 07:53:54;;;;;;;2.17;2.00;;;;;;;22.99;66.05;100627.09;5027964;28;102177;-90
2022/07/26 07:56:21;;;;;;;2.13;1.95;;;;;;;23.03;65.92;100627.97;5013156;28;102697;-91
2022/07/26 07:58:48;;;;;;;2.05;1.85;;;;;;;23.05;66.24;100624.88;4999095;28;103739;-91
2022/07/26 08:01:16;;;;;;;2.08;1.88;;;;;;;23.04;65.95;100615.72;5006924;28;102686;-91
2022/07/26 08:04:00;;;;;;;2.72;2.00;;;;;;;23.01;65.80;100616.44;4987886;28;102052;-93
2022/07/26 08:06:30;;;;;;;2.25;2.05;;;;;;;23.01;66.26;100619.22;5010613;27;102554;-91
2022/07/26 08:08:57;;;;;;;2.38;1.73;;;;;;;23.01;66.26;100614.47;5019139;27;103109;-92
2022/07/26 08:11:42;;;;;;;2.63;2.42;;;;;;;23.00;66.53;100612.84;5019541;27;102709;-93
2022/07/26 08:14:11;;;;;;;2.65;2.30;;;;;;;23.03;65.94;100611.34;5035111;27;102573;-92
2022/07/26 08:19:44;;;;;;;2.55;2.10;;;;;;;23.02;66.38;100604.97;4989105;28;103914;-53
2022/07/26 08:22:10;;;;;;;3.60;2.03;;;;;;;22.99;66.56;100605.69;4998262;28;101914;-52
2022/07/26 08:24:37;;;;;;;1.88;1.77;;;;;;;23.02;66.41;100610.53;4997098;28;102249;-53
2022/07/26 08:27:05;;;;;;;2.42;2.20;;;;;;;23.02;66.23;100602.19;4999082;28;102140;-52
2022/07/26 08:29:31;;;;;;;1.90;1.80;;;;;;;23.03;65.92;100605.78;4996363;28;103586;-53
2022/07/26 08:31:59;;;;;;;3.17;2.07;;;;;;;23.02;66.45;100616.06;4998362;28;102529;-53
2022/07/26 08:34:26;;;;;;;2.13;2.03;;;;;;;23.02;66.33;100609.72;4997727;28;101854;-52
2022/07/26 08:36:54;;;;;;;2.47;2.28;;;;;;;23.02;66.34;100609.72;4995481;28;105285;-52
2022/07/26 08:39:21;;;;;;;2.30;2.10;;;;;;;23.00;66.66;100612.84;4996759;28;104218;-52
2022/07/26 08:41:47;;;;;;;2.50;2.30;;;;;;;23.00;66.52;100604.50;4996884;28;102439;-52
2022/07/26 08:44:14;;;;;;;2.20;2.00;;;;;;;23.00;66.59;100609.25;4996474;28;102322;-53
2022/07/26 08:46:41;;;;;;;2.45;1.77;;;;;;;23.01;66.12;100605.34;4996824;28;102237;-52
2022/07/26 08:49:10;;;;;;;2.50;2.25;;;;;;;23.05;65.04;100605.44;4995676;28;103943;-52
2022/07/26 08:51:38;;;;;;;2.30;2.20;;;;;;;23.05;66.45;100613.75;4996433;28;102359;-53
2022/07/26 08:54:06;;;;;;;2.30;2.10;;;;;;;23.00;66.47;100617.59;4995818;28;102468;-53
2022/07/26 08:56:36;;;;;;;2.13;1.92;;;;;;;22.98;66.64;100614.38;4996673;28;102484;-52
2022/07/26 08:59:03;;;;;;;;;;;;;;;22.94;66.91;100613.50;4995353;28;103918;-53
2022/07/26 09:01:30;;;;;;;2.17;2.00;;;;;;;22.92;66.76;100604.72;4997371;28;103058;-53
2022/07/26 09:04:16;;;;;;;2.33;2.13;;;;;;;22.93;66.63;100615.44;4995595;28;102478;-53
2022/07/26 09:06:53;;;;;;;1.77;1.67;;;;;;;22.96;66.64;100616.69;4996813;28;102683;-53
2022/07/26 09:09:21;;;;;;;2.13;1.98;;;;;;;22.96;66.56;100611.94;5009507;28;103905;-53
2022/07/26 09:11:48;;;;;;;2.10;1.90;;;;;;;22.95;66.82;100615.91;5016623;28;102082;-53
2022/07/26 09:14:15;;;;;;;2.55;2.03;;;;;;;22.92;67.08;100607.47;5014632;28;102498;-52
2022/07/26 09:16:55;;;;;;;2.00;1.90;;;;;;;22.91;66.89;100614.19;5017216;28;102336;-53
2022/07/26 09:19:23;;;;;;;1.70;1.60;;;;;;;22.90;66.85;100613.38;5013385;27;103954;-53
2022/07/26 09:21:51;;;;;;;2.20;2.10;;;;;;;22.91;66.69;100609.44;5016512;28;102066;-53
2022/07/26 09:24:31;;;;;;;2.05;1.85;;;;;;;22.89;66.78;100606.19;5014469;28;102009;-53
2022/07/26 09:26:59;;;;;;;2.03;1.83;;;;;;;22.89;66.95;100603.41;5016694;28;103552;-53
2022/07/26 09:29:27;;;;;;;2.00;1.90;;;;;;;22.91;66.99;100609.44;5013480;28;103878;-52
2022/07/26 09:32:09;;;;;;;2.80;1.73;;;;;;;22.95;66.53;100601.22;5013823;28;102032;-53
2022/07/26 09:34:36;;;;;;;1.90;1.70;;;;;;;22.98;66.41;100611.63;5010243;28;102265;-52
2022/07/26 09:37:03;;;;;;;2.03;1.92;;;;;;;22.96;66.82;100605.59;5015918;28;102247;-53
2022/07/26 09:39:32;;;;;;;1.80;1.70;;;;;;;22.93;66.65;100609.09;5015064;27;104039;-53
2022/07/26 09:42:06;;;;;;;2.17;2.00;;;;;;;22.90;66.86;100607.00;5012621;28;102489;-53
2022/07/26 09:44:40;;;;;;;2.38;2.00;;;;;;;22.87;67.06;100605.75;5015786;28;102422;-53
2022/07/26 09:47:07;;;;;;;1.85;1.70;;;;;;;22.88;66.86;100603.78;5017643;28;102087;-53
2022/07/26 09:49:33;;;;;;;1.95;1.85;;;;;;;22.89;66.78;100602.63;5015662;28;103855;-52
2022/07/26 09:52:00;;;;;;;2.47;2.28;;;;;;;22.92;66.39;100604.72;5016264;28;102126;-53
2022/07/26 09:54:34;;;;;;;2.30;2.10;;;;;;;22.96;66.43;100600.06;5013368;27;102221;-52
2022/07/26 09:57:00;;;;;;;2.28;2.08;;;;;;;22.97;66.67;100601.66;5016165;28;103511;-53
2022/07/26 09:59:28;;;;;;;2.28;1.92;;;;;;;22.95;66.99;100596.47;5015389;28;103820;-52
2022/07/26 10:01:57;;;;;;;2.10;2.00;;;;;;;22.95;66.51;100598.44;5016286;28;102376;-52
2022/07/26 10:04:25;;;;;;;1.67;1.58;;;;;;;22.95;66.45;100593.69;5013709;28;102518;-53
2022/07/26 10:06:52;;;;;;;2.15;2.05;;;;;;;22.94;67.09;100585.75;5014315;28;102176;-53
2022/07/26 10:09:19;;;;;;;2.10;2.00;;;;;;;22.92;66.74;100588.06;5015648;28;104122;-53
2022/07/26 10:11:53;;;;;;;2.10;2.00;;;;;;;22.90;66.87;100591.16;5016628;28;102408;-52
2022/07/26 10:14:37;;;;;;;2.10;1.98;;;;;;;22.87;66.83;100586.34;5012113;28;102121;-53
2022/07/26 10:17:43;;;;;;;2.00;1.88;;;;;;;22.87;66.68;100579.97;5016854;28;102280;-52
2022/07/26 10:20:30;;;;;;;1.73;1.63;;;;;;;22.87;66.64;100585.53;5015419;28;103972;-53
2022/07/26 10:22:57;;;;;;;1.92;1.83;;;;;;;22.88;67.00;100587.13;5015990;27;102236;-52
2022/07/26 10:25:45;;;;;;;2.00;1.90;;;;;;;22.85;66.82;100576.75;5013589;28;102170;-53
2022/07/26 10:28:35;;;;;;;2.30;2.10;;;;;;;22.84;66.97;100580.69;5016896;28;102444;-52
2022/07/26 10:31:29;;;;;;;3.25;1.98;;;;;;;22.85;66.87;100576.75;5014972;28;108710;-53
2022/07/26 10:33:59;;;;;;;2.15;2.05;;;;;;;22.81;66.82;100571.09;5013238;28;102679;-53
2022/07/26 10:36:28;;;;;;;2.15;2.00;;;;;;;22.81;66.89;100570.31;5015447;27;102191;-52
2022/07/26 10:39:13;;;;;;;2.72;1.92;;;;;;;22.81;66.95;100565.56;5017027;28;102603;-53
2022/07/26 10:41:43;;;;;;;1.92;1.83;;;;;;;22.78;67.09;100561.53;5014579;28;103995;-53
2022/07/26 10:44:20;;;;;;;1.88;1.77;;;;;;;22.76;66.75;100563.88;5015324;28;102353;-53
2022/07/26 10:47:14;;;;;;;2.13;2.03;;;;;;;22.78;66.93;100558.75;5013726;28;102460;-53
2022/07/26 10:49:53;;;;;;;2.05;1.92;;;;;;;22.78;66.72;100558.75;5014166;28;102420;-53
2022/07/26 10:52:22;;;;;;;1.87;1.77;;;;;;;22.77;66.93;100554.38;5012127;28;104009;-53
2022/07/26 10:55:16;;;;;;;1.88;1.77;;;;;;;22.77;66.75;100548.81;5004521;28;103121;-52
2022/07/26 10:57:44;;;;;;;1.77;1.67;;;;;;;22.79;66.85;100551.22;5010829;28;102327;-53
2022/07/26 11:00:25;;;;;;;1.80;1.70;;;;;;;22.76;66.88;100552.78;5005728;28;102069;-53
2022/07/26 11:02:57;;;;;;;4.57;2.00;;;;;;;22.77;66.91;100548.81;5013125;28;103899;-53
2022/07/26 11:05:29;;;;;;;2.05;1.95;;;;;;;22.76;66.86;100552.78;4996052;28;102125;-53
2022/07/26 11:08:03;;;;;;;1.88;1.77;;;;;;;22.77;66.94;100545.25;5013645;28;102070;-53
2022/07/26 11:10:35;;;;;;;1.90;1.80;;;;;;;22.77;67.15;100540.50;5012614;28;102109;-53
2022/07/26 11:13:24;;;;;;;1.90;1.80;;;;;;;22.75;66.88;100542.00;5008281;27;104325;-53
2022/07/26 11:15:59;;;;;;;1.90;1.80;;;;;;;22.74;66.96;100538.44;5003211;28;102122;-53
2022/07/26 11:18:31;;;;;;;2.10;2.00;;;;;;;22.74;66.91;100549.53;5017703;28;102012;-53
2022/07/26 11:21:08;;;;;;;1.80;1.70;;;;;;;22.75;67.23;100539.25;5020194;28;102283;-52
2022/07/26 11:23:37;;;;;;;1.70;1.60;;;;;;;22.76;66.73;100529.78;5017920;28;104098;-53
2022/07/26 11:26:09;;;;;;;2.72;1.73;;;;;;;22.76;66.92;100527.81;5018087;28;101930;-53
2022/07/26 11:28:57;;;;;;;2.00;1.90;;;;;;;22.74;66.99;100524.56;5018501;28;102160;-53
2022/07/26 11:31:32;;;;;;;1.65;1.55;;;;;;;22.74;66.95;100527.34;5019346;28;102154;-53
2022/07/26 11:33:59;;;;;;;1.80;1.70;;;;;;;22.73;67.09;100525.75;5016144;28;104150;-53
2022/07/26 11:36:36;;;;;;;2.13;1.75;;;;;;;22.72;67.13;100513.03;5017913;27;102457;-53
2022/07/26 11:39:05;;;;;;;1.83;1.73;;;;;;;22.72;67.10;100515.81;5018560;28;101941;-52
2022/07/26 11:41:31;;;;;;;;;;;;;;;22.71;67.26;100516.97;5019308;28;102307;-53
2022/07/26 11:43:58;;;;;;;1.95;1.85;;;;;;;22.73;67.01;100519.38;5018394;28;103895;-53
2022/07/26 11:46:35;;;;;;;3.28;2.00;;;;;;;22.76;67.06;100502.84;5018257;28;102616;-53
2022/07/26 11:49:04;;;;;;;2.30;2.03;;;;;;;22.73;66.69;100500.78;5020364;28;102577;-53
2022/07/26 11:51:32;;;;;;;2.00;1.90;;;;;;;22.75;66.58;100498.44;5018778;28;102083;-53
2022/07/26 11:54:02;;;;;;;2.00;1.90;;;;;;;22.75;66.77;100495.66;5016287;27;104123;-53
2022/07/26 11:56:30;;;;;;;1.85;1.75;;;;;;;22.74;66.87;100488.50;5018694;28;102422;-52
2022/07/26 11:58:57;;;;;;;1.75;1.65;;;;;;;22.72;66.95;100492.78;5017270;28;102466;-53